createdAt,value
2018-06-20T00:01:29.435Z,101704.71
2018-06-20T00:03:57.774Z,101700.23
2018-06-20T00:06:26.144Z,101702.26
2018-06-20T00:08:54.485Z,101706.79
2018-06-20T00:11:24.480Z,101704.66
2018-06-20T00:13:53.779Z,101703.59
2018-06-20T00:16:22.118Z,101705.44
2018-06-20T00:18:50.585Z,101704.97
2018-06-20T00:21:18.919Z,101704.03
2018-06-20T00:23:47.257Z,101706.09
2018-06-20T00:26:15.607Z,101705.48
2018-06-20T00:28:43.954Z,101703.31
2018-06-20T00:31:13.193Z,101700.95
2018-06-20T00:33:41.534Z,101708.17
2018-06-20T00:36:09.878Z,101701.67
2018-06-20T00:38:38.234Z,101704.68
2018-06-20T00:41:06.642Z,101704.45
2018-06-20T00:43:34.997Z,101709.22
2018-06-20T00:46:03.480Z,101693.74
2018-06-20T00:48:31.835Z,101692.33
2018-06-20T00:51:00.179Z,101700.11
2018-06-20T00:53:28.570Z,101701.66
2018-06-20T00:56:08.265Z,101700.15
2018-06-20T00:58:36.640Z,101706.28
2018-06-20T01:01:05.008Z,101697.69
2018-06-20T01:03:33.371Z,101700.80
2018-06-20T01:06:01.721Z,101699.98
2018-06-20T01:08:30.063Z,101699.72
2018-06-20T01:10:58.456Z,101704.55
2018-06-20T01:13:26.818Z,101704.31
2018-06-20T01:15:55.162Z,101703.27
2018-06-20T01:18:23.562Z,101700.48
2018-06-20T01:20:51.906Z,101702.28
2018-06-20T01:23:20.359Z,101707.69
2018-06-20T01:25:50.192Z,101710.94
2018-06-20T01:28:20.207Z,101714.65
2018-06-20T01:30:50.550Z,101711.41
2018-06-20T01:33:20.388Z,101713.69
2018-06-20T01:35:49.668Z,101714.29
2018-06-20T01:38:19.042Z,101712.58
2018-06-20T01:40:48.291Z,101708.75
2018-06-20T01:43:17.658Z,101712.71
2018-06-20T01:45:46.922Z,101712.58
2018-06-20T01:48:15.267Z,101707.20
2018-06-20T01:50:44.452Z,101711.86
2018-06-20T01:53:12.843Z,101716.42
2018-06-20T01:55:42.178Z,101717.27
2018-06-20T01:58:11.505Z,101716.31
2018-06-20T02:00:40.888Z,101708.89
2018-06-20T02:03:10.118Z,101702.90
2018-06-20T02:05:38.491Z,101706.27
2018-06-20T02:08:07.713Z,101709.50
2018-06-20T02:10:36.931Z,101708.50
2018-06-20T02:13:06.184Z,101711.27
2018-06-20T02:15:34.566Z,101712.24
2018-06-20T02:18:02.930Z,101711.52
2018-06-20T02:20:31.302Z,101711.16
2018-06-20T02:22:59.659Z,101714.51
2018-06-20T02:25:28.036Z,101709.72
2018-06-20T02:27:56.391Z,101715.83
2018-06-20T02:30:24.731Z,101721.48
2018-06-20T02:32:53.084Z,101733.23
2018-06-20T02:35:21.431Z,101730.50
2018-06-20T02:37:49.775Z,101737.41
2018-06-20T02:40:18.127Z,101734.30
2018-06-20T02:42:46.480Z,101744.12
2018-06-20T02:45:15.735Z,101753.84
2018-06-20T02:47:44.793Z,101745.93
2018-06-20T02:50:14.063Z,101744.61
2018-06-20T02:52:42.421Z,101748.31
2018-06-20T02:55:10.894Z,101748.45
2018-06-20T02:57:39.307Z,101746.77
2018-06-20T03:00:07.669Z,101748.80
2018-06-20T03:02:36.015Z,101735.52
2018-06-20T03:05:04.610Z,101741.53
2018-06-20T03:07:32.966Z,101737.70
2018-06-20T03:10:01.317Z,101740.91
2018-06-20T03:12:29.662Z,101743.92
2018-06-20T03:14:58.013Z,101743.20
2018-06-20T03:17:26.367Z,101742.13
2018-06-20T03:19:54.714Z,101744.52
2018-06-20T03:22:23.081Z,101745.69
2018-06-20T03:24:51.443Z,101745.92
2018-06-20T03:27:19.840Z,101742.70
2018-06-20T03:29:48.197Z,101745.79
2018-06-20T03:32:16.546Z,101743.48
2018-06-20T03:34:44.905Z,101739.63
2018-06-20T03:37:13.274Z,101743.08
2018-06-20T03:39:41.627Z,101737.66
2018-06-20T03:42:09.977Z,101740.86
2018-06-20T03:44:39.210Z,101737.34
2018-06-20T03:47:08.445Z,101738.03
2018-06-20T03:49:36.797Z,101729.75
2018-06-20T03:52:05.156Z,101736.91
2018-06-20T03:54:33.946Z,101741.18
2018-06-20T03:57:02.311Z,101745.23
2018-06-20T03:59:30.667Z,101748.59
2018-06-20T04:01:59.028Z,101753.38
2018-06-20T04:04:27.386Z,101748.43
2018-06-20T04:06:55.737Z,101743.61
2018-06-20T04:09:24.095Z,101749.25
2018-06-20T04:11:53.497Z,101752.13
2018-06-20T04:14:22.744Z,101753.64
2018-06-20T04:16:52.178Z,101750.66
2018-06-20T04:19:20.527Z,101744.84
2018-06-20T04:21:48.874Z,101748.47
2018-06-20T04:24:17.222Z,101748.31
2018-06-20T04:26:45.584Z,101753.73
2018-06-20T04:29:13.967Z,101750.70
2018-06-20T04:31:42.336Z,101754.11
2018-06-20T04:34:10.701Z,101758.38
2018-06-20T04:36:39.059Z,101753.56
2018-06-20T04:39:08.976Z,101747.83
2018-06-20T04:41:37.346Z,101753.86
2018-06-20T04:44:05.725Z,101759.08
2018-06-20T04:46:34.089Z,101756.43
2018-06-20T04:49:02.489Z,101760.29
2018-06-20T04:51:30.841Z,101752.92
2018-06-20T04:54:01.011Z,101757.64
2018-06-20T04:56:29.446Z,101753.94
2018-06-20T04:58:57.813Z,101756.28
2018-06-20T05:01:27.181Z,101758.93
2018-06-20T05:03:56.567Z,101764.56
2018-06-20T05:06:24.954Z,101764.50
2018-06-20T05:08:53.326Z,101757.03
2018-06-20T05:11:22.585Z,101756.00
2018-06-20T05:13:51.818Z,101752.30
2018-06-20T05:16:20.210Z,101749.78
2018-06-20T05:18:48.566Z,101753.53
2018-06-20T05:21:17.858Z,101755.50
2018-06-20T05:23:46.199Z,101746.78
2018-06-20T05:26:14.588Z,101752.73
2018-06-20T05:28:43.937Z,101758.72
2018-06-20T05:31:13.224Z,101756.27
2018-06-20T05:33:42.486Z,101757.73
2018-06-20T05:36:10.835Z,101759.25
2018-06-20T05:38:39.215Z,101760.14
2018-06-20T05:41:07.566Z,101759.70
2018-06-20T05:43:36.678Z,101758.97
2018-06-20T05:46:05.044Z,101757.00
2018-06-20T05:48:33.475Z,101756.52
2018-06-20T05:51:02.830Z,101757.08
2018-06-20T05:53:31.540Z,101757.55
2018-06-20T05:55:59.873Z,101759.05
2018-06-20T05:58:29.271Z,101750.14
2018-06-20T06:00:58.546Z,101751.41
2018-06-20T06:03:26.878Z,101754.73
2018-06-20T06:06:06.564Z,101757.80
2018-06-20T06:08:35.910Z,101750.20
2018-06-20T06:11:05.087Z,101751.25
2018-06-20T06:13:34.342Z,101749.45
2018-06-20T06:16:03.102Z,101741.97
2018-06-20T06:18:32.446Z,101744.82
2018-06-20T06:21:01.855Z,101747.16
2018-06-20T06:23:31.238Z,101751.84
2018-06-20T06:25:59.599Z,101747.45
2018-06-20T06:28:29.185Z,101741.31
2018-06-20T06:30:57.701Z,101735.83
2018-06-20T06:33:26.044Z,101743.84
2018-06-20T06:35:54.613Z,101741.30
2018-06-20T06:38:23.978Z,101733.85
2018-06-20T06:40:52.522Z,101739.53
2018-06-20T06:43:20.895Z,101735.98
2018-06-20T06:45:49.234Z,101737.61
2018-06-20T06:48:17.567Z,101735.42
2018-06-20T06:50:46.052Z,101740.70
2018-06-20T06:53:14.490Z,101734.83
2018-06-20T06:55:42.846Z,101734.92
2018-06-20T06:58:11.198Z,101732.25
2018-06-20T07:00:40.478Z,101738.27
2018-06-20T07:03:08.835Z,101739.80
2018-06-20T07:05:37.972Z,101733.80
2018-06-20T07:08:06.305Z,101733.42
2018-06-20T07:10:35.663Z,101729.13
2018-06-20T07:13:04.005Z,101725.09
2018-06-20T07:15:33.361Z,101731.09
2018-06-20T07:18:01.726Z,101720.23
2018-06-20T07:20:31.087Z,101724.67
2018-06-20T07:22:59.431Z,101723.41
2018-06-20T07:25:28.656Z,101719.89
2018-06-20T07:27:56.985Z,101719.52
2018-06-20T07:30:26.238Z,101723.46
2018-06-20T07:32:54.573Z,101719.27
2018-06-20T07:35:23.001Z,101720.25
2018-06-20T07:37:52.278Z,101715.29
2018-06-20T07:40:20.614Z,101722.11
2018-06-20T07:42:49.958Z,101724.77
2018-06-20T07:45:18.324Z,101720.78
2018-06-20T07:47:47.503Z,101723.62
2018-06-20T07:50:15.900Z,101719.98
2018-06-20T07:52:44.250Z,101715.80
2018-06-20T07:55:12.664Z,101706.76
2018-06-20T07:57:41.731Z,101711.09
2018-06-20T08:00:15.289Z,101707.42
2018-06-20T08:03:00.226Z,101704.03
2018-06-20T08:05:33.943Z,101711.72
2018-06-20T08:08:08.482Z,101703.08
2018-06-20T08:10:43.074Z,101703.34
2018-06-20T08:13:17.593Z,101711.06
2018-06-20T08:15:52.217Z,101706.00
2018-06-20T08:18:25.784Z,101706.30
2018-06-20T08:20:55.105Z,101705.52
2018-06-20T08:23:23.453Z,101712.48
2018-06-20T08:25:51.855Z,101710.80
2018-06-20T08:28:20.183Z,101710.02
2018-06-20T08:30:48.531Z,101697.86
2018-06-20T08:33:16.886Z,101698.39
2018-06-20T08:35:45.236Z,101702.64
2018-06-20T08:38:13.590Z,101686.02
2018-06-20T08:40:41.941Z,101684.36
2018-06-20T08:43:10.316Z,101685.17
2018-06-20T08:45:38.726Z,101683.08
2018-06-20T08:48:07.130Z,101678.94
2018-06-20T08:50:35.522Z,101675.39
2018-06-20T08:53:03.912Z,101671.20
2018-06-20T08:55:33.129Z,101669.81
2018-06-20T08:58:02.417Z,101673.71
2018-06-20T09:00:36.006Z,101669.31
2018-06-20T09:03:04.382Z,101669.66
2018-06-20T09:05:38.158Z,101662.45
2018-06-20T09:08:12.858Z,101663.70
2018-06-20T09:12:54.414Z,101657.16
2018-06-20T09:15:28.062Z,101658.88
2018-06-20T09:18:02.620Z,101655.63
2018-06-20T09:20:31.022Z,101649.82
2018-06-20T09:22:59.359Z,101649.22
2018-06-20T09:25:27.694Z,101644.56
2018-06-20T09:27:56.931Z,101640.43
2018-06-20T09:30:26.273Z,101641.01
2018-06-20T09:32:54.702Z,101638.89
2018-06-20T09:35:23.039Z,101638.94
2018-06-20T09:37:51.429Z,101634.05
2018-06-20T09:40:19.768Z,101629.72
2018-06-20T09:42:48.147Z,101630.26
2018-06-20T09:45:17.386Z,101625.77
2018-06-20T09:47:45.731Z,101626.41
2018-06-20T09:50:20.315Z,101623.00
2018-06-20T09:52:48.697Z,101620.55
2018-06-20T09:55:17.955Z,101613.39
2018-06-20T09:57:47.265Z,101617.02
2018-06-20T10:00:21.786Z,101603.81
2018-06-20T10:02:55.470Z,101598.88
2018-06-20T10:05:30.122Z,101603.36
2018-06-20T10:08:04.808Z,101596.44
2018-06-20T10:10:39.481Z,101596.99
2018-06-20T10:13:13.764Z,101599.55
2018-06-20T10:15:42.960Z,101598.58
2018-06-20T10:18:11.353Z,101599.99
2018-06-20T10:20:40.604Z,101590.85
2018-06-20T10:23:09.899Z,101588.96
2018-06-20T10:25:39.130Z,101587.70
2018-06-20T10:28:08.341Z,101584.81
2018-06-20T10:30:37.690Z,101585.94
2018-06-20T10:33:06.050Z,101575.97
2018-06-20T10:35:34.434Z,101573.68
2018-06-20T10:38:03.719Z,101580.68
2018-06-20T10:40:32.102Z,101568.69
2018-06-20T10:43:01.526Z,101562.39
2018-06-20T10:45:35.183Z,101556.70
2018-06-20T10:48:09.881Z,101554.61
2018-06-20T10:50:38.962Z,101554.33
2018-06-20T10:53:08.340Z,101545.20
2018-06-20T10:55:38.838Z,101548.22
2018-06-20T10:58:13.714Z,101538.48
2018-06-20T11:00:47.732Z,101536.80
2018-06-20T11:03:21.423Z,101532.25
2018-06-20T11:05:55.122Z,101532.98
2018-06-20T11:08:29.806Z,101523.84
2018-06-20T11:11:04.420Z,101523.39
2018-06-20T11:13:33.675Z,101516.38
2018-06-20T11:16:02.946Z,101512.66
2018-06-20T11:18:33.602Z,101508.54
2018-06-20T11:21:02.005Z,101502.11
2018-06-20T11:23:30.375Z,101500.08
2018-06-20T11:25:58.738Z,101496.91
2018-06-20T11:28:27.090Z,101496.55
2018-06-20T11:30:55.462Z,101488.38
2018-06-20T11:33:23.822Z,101486.52
2018-06-20T11:35:52.204Z,101479.56
2018-06-20T11:38:21.487Z,101482.50
2018-06-20T11:40:50.299Z,101479.89
2018-06-20T11:43:18.868Z,101478.61
2018-06-20T11:45:52.530Z,101473.89
2018-06-20T11:48:20.878Z,101469.19
2018-06-20T11:50:49.249Z,101462.73
2018-06-20T11:53:17.582Z,101462.64
2018-06-20T11:55:47.026Z,101456.70
2018-06-20T11:58:20.613Z,101453.78
2018-06-20T12:00:54.254Z,101452.65
2018-06-20T12:03:27.965Z,101450.80
2018-06-20T12:06:01.641Z,101448.25
2018-06-20T12:08:35.357Z,101441.09
2018-06-20T12:11:08.954Z,101443.56
2018-06-20T12:13:42.590Z,101430.77
2018-06-20T12:16:24.047Z,101431.11
2018-06-20T12:18:57.733Z,101431.66
2018-06-20T12:21:31.546Z,101426.77
2018-06-20T12:24:05.216Z,101431.66
2018-06-20T12:26:38.817Z,101416.73
2018-06-20T12:29:12.554Z,101424.72
2018-06-20T12:31:46.151Z,101422.71
2018-06-20T12:34:19.914Z,101419.23
2018-06-20T12:36:53.630Z,101411.29
2018-06-20T12:39:21.164Z,101406.58
2018-06-20T12:41:54.977Z,101400.95
2018-06-20T12:44:30.414Z,101401.44
2018-06-20T12:47:01.356Z,101396.70
2018-06-20T12:49:34.448Z,101391.14
2018-06-20T12:52:03.709Z,101394.94
2018-06-20T12:54:32.384Z,101393.46
2018-06-20T12:57:01.735Z,101385.38
2018-06-20T12:59:31.131Z,101381.88
2018-06-20T13:01:59.491Z,101375.94
2018-06-20T13:04:27.849Z,101373.52
2018-06-20T13:06:56.198Z,101379.48
2018-06-20T13:09:24.564Z,101365.10
2018-06-20T13:11:53.906Z,101357.91
2018-06-20T13:14:23.161Z,101355.70
2018-06-20T13:16:51.513Z,101359.87
2018-06-20T13:19:19.869Z,101351.45
2018-06-20T13:21:48.232Z,101356.63
2018-06-20T13:24:16.582Z,101356.97
2018-06-20T13:26:45.842Z,101352.33
2018-06-20T13:29:15.086Z,101348.43
2018-06-20T13:31:49.778Z,101341.44
2018-06-20T13:34:24.447Z,101338.80
2018-06-20T13:36:59.090Z,101326.95
2018-06-20T13:39:33.917Z,101331.14
2018-06-20T13:42:08.778Z,101322.28
2018-06-20T13:44:38.038Z,101323.30
2018-06-20T13:47:12.707Z,101319.81
2018-06-20T13:49:41.996Z,101311.67
2018-06-20T13:52:11.212Z,101310.55
2018-06-20T13:54:39.574Z,101303.13
2018-06-20T13:57:08.948Z,101295.00
2018-06-20T13:59:38.201Z,101299.39
2018-06-20T14:02:07.504Z,101297.73
2018-06-20T14:04:36.873Z,101292.75
2018-06-20T14:07:06.159Z,101290.20
2018-06-20T14:09:34.547Z,101283.88
2018-06-20T14:12:04.712Z,101286.84
2018-06-20T14:14:33.092Z,101275.91
2018-06-20T14:17:02.365Z,101270.44
2018-06-20T14:19:36.913Z,101266.90
2018-06-20T14:22:06.335Z,101257.66
2018-06-20T14:24:34.683Z,101261.20
2018-06-20T14:27:04.065Z,101260.42
2018-06-20T14:29:38.576Z,101259.13
2018-06-20T14:32:13.287Z,101260.64
2018-06-20T14:34:46.987Z,101258.16
2018-06-20T14:37:20.665Z,101250.52
2018-06-20T14:39:54.362Z,101251.34
2018-06-20T14:42:29.014Z,101242.36
2018-06-20T14:45:02.811Z,101244.55
2018-06-20T14:47:31.227Z,101241.38
2018-06-20T14:50:00.245Z,101239.44
2018-06-20T14:52:28.645Z,101233.39
2018-06-20T14:54:57.080Z,101226.75
2018-06-20T14:57:26.451Z,101225.22
2018-06-20T14:59:54.857Z,101233.27
2018-06-20T15:02:23.219Z,101222.99
2018-06-20T15:04:51.617Z,101214.46
2018-06-20T15:07:21.014Z,101214.03
2018-06-20T15:09:49.387Z,101206.63
2018-06-20T15:12:18.832Z,101201.58
2018-06-20T15:14:47.194Z,101196.55
2018-06-20T15:17:20.940Z,101186.86
2018-06-20T15:19:49.344Z,101187.34
2018-06-20T15:22:18.674Z,101184.31
2018-06-20T15:24:47.954Z,101174.89
2018-06-20T15:27:21.442Z,101175.55
2018-06-20T15:29:55.074Z,101169.85
2018-06-20T15:32:28.772Z,101169.34
2018-06-20T15:35:02.465Z,101163.52
2018-06-20T15:37:36.156Z,101155.77
2018-06-20T15:40:05.028Z,101157.67
2018-06-20T15:42:33.421Z,101150.60
2018-06-20T15:45:01.781Z,101142.88
2018-06-20T15:47:30.233Z,101144.06
2018-06-20T15:49:58.590Z,101135.61
2018-06-20T15:52:27.885Z,101139.77
2018-06-20T15:54:56.266Z,101136.67
2018-06-20T15:57:24.652Z,101137.09
2018-06-20T15:59:53.079Z,101129.39
2018-06-20T16:02:21.546Z,101124.65
2018-06-20T16:04:49.921Z,101115.75
2018-06-20T16:07:18.287Z,101115.44
2018-06-20T16:09:57.352Z,101112.43
2018-06-20T16:12:26.254Z,101105.22
2018-06-20T16:14:56.434Z,101099.09
2018-06-20T16:17:26.034Z,101103.89
2018-06-20T16:20:00.653Z,101095.31
2018-06-20T16:22:34.396Z,101094.80
2018-06-20T16:25:08.098Z,101089.00
2018-06-20T16:29:47.459Z,101089.45
2018-06-20T16:32:15.859Z,101083.86
2018-06-20T16:34:45.115Z,101077.13
2018-06-20T16:37:13.484Z,101078.47
2018-06-20T16:39:42.845Z,101075.02
2018-06-20T16:42:12.121Z,101071.69
2018-06-20T16:44:40.533Z,101066.72
2018-06-20T16:47:10.214Z,101066.64
2018-06-20T16:49:39.527Z,101060.87
2018-06-20T16:52:08.768Z,101059.03
2018-06-20T16:54:38.074Z,101059.36
2018-06-20T16:57:06.847Z,101052.78
2018-06-20T16:59:36.184Z,101052.22
2018-06-20T17:02:10.727Z,101053.45
2018-06-20T17:04:40.135Z,101051.93
2018-06-20T17:07:08.585Z,101054.57
2018-06-20T17:09:37.863Z,101047.20
2018-06-20T17:12:12.519Z,101050.30
2018-06-20T17:14:46.159Z,101044.45
2018-06-20T17:17:19.858Z,101046.30
2018-06-20T17:19:54.566Z,101039.44
2018-06-20T17:22:28.240Z,101029.84
2018-06-20T17:25:01.962Z,101032.14
2018-06-20T17:27:30.407Z,101019.77
2018-06-20T17:29:58.757Z,101023.20
2018-06-20T17:32:27.175Z,101018.77
2018-06-20T17:34:55.823Z,101014.73
2018-06-20T17:37:24.173Z,101020.86
2018-06-20T17:39:52.535Z,101017.38
2018-06-20T17:42:20.954Z,101018.89
2018-06-20T17:44:49.310Z,101008.62
2018-06-20T17:47:17.679Z,101005.16
2018-06-20T17:49:46.102Z,101006.14
2018-06-20T17:52:14.462Z,100997.66
2018-06-20T17:54:42.835Z,100999.75
2018-06-20T17:57:12.260Z,101003.97
2018-06-20T17:59:41.558Z,100994.28
2018-06-20T18:02:10.964Z,100992.17
2018-06-20T18:04:44.717Z,100995.73
2018-06-20T18:07:18.371Z,100989.98
2018-06-20T18:09:52.182Z,100991.42
2018-06-20T18:12:27.454Z,100989.22
2018-06-20T18:15:01.170Z,100993.34
2018-06-20T18:17:29.569Z,100987.48
2018-06-20T18:19:57.963Z,100985.34
2018-06-20T18:22:26.359Z,100986.09
2018-06-20T18:24:54.844Z,100985.67
2018-06-20T18:27:23.262Z,100987.55
2018-06-20T18:29:51.668Z,100986.98
2018-06-20T18:32:20.041Z,100990.58
2018-06-20T18:34:48.423Z,100981.21
2018-06-20T18:37:16.780Z,100984.92
2018-06-20T18:39:51.586Z,100981.30
2018-06-20T18:42:20.781Z,100981.15
2018-06-20T18:44:50.168Z,100978.95
2018-06-20T18:47:23.767Z,100977.47
2018-06-20T18:49:52.627Z,100978.55
2018-06-20T18:52:21.926Z,100977.81
2018-06-20T18:54:51.176Z,100974.38
2018-06-20T18:57:25.473Z,100971.31
2018-06-20T18:59:59.167Z,100971.24
2018-06-20T19:02:42.356Z,100968.50
2018-06-20T19:05:16.080Z,100977.37
2018-06-20T19:07:50.855Z,100977.17
2018-06-20T19:10:19.223Z,100977.00
2018-06-20T19:12:48.608Z,100982.88
2018-06-20T19:15:17.007Z,100977.98
2018-06-20T19:17:46.327Z,100980.81
2018-06-20T19:20:14.724Z,100980.59
2018-06-20T19:22:43.883Z,100979.07
2018-06-20T19:25:12.239Z,100973.67
2018-06-20T19:27:41.645Z,100983.92
2018-06-20T19:30:10.916Z,100976.95
2018-06-20T19:32:40.311Z,100979.77
2018-06-20T19:35:09.560Z,100978.59
2018-06-20T19:37:37.930Z,100981.92
2018-06-20T19:40:07.310Z,100980.22
2018-06-20T19:42:35.668Z,100982.14
2018-06-20T19:45:04.125Z,100985.63
2018-06-20T19:47:32.510Z,100985.41
2018-06-20T19:50:01.771Z,100987.33
2018-06-20T19:52:30.167Z,100989.22
2018-06-20T19:54:58.526Z,100983.12
2018-06-20T19:57:27.907Z,100985.02
2018-06-20T19:59:56.318Z,100982.02
2018-06-20T20:02:25.682Z,100978.66
2018-06-20T20:04:55.110Z,100984.16
2018-06-20T20:07:23.450Z,100976.94
2018-06-20T20:09:51.901Z,100982.23
2018-06-20T20:12:21.332Z,100979.22
2018-06-20T20:14:49.749Z,100982.14
2018-06-20T20:17:19.175Z,100976.59
2018-06-20T20:19:47.541Z,100968.84
2018-06-20T20:22:15.897Z,100979.87
2018-06-20T20:24:44.252Z,100975.23
2018-06-20T20:27:12.634Z,100977.78
2018-06-20T20:29:40.986Z,100974.17
2018-06-20T20:32:09.380Z,100975.54
2018-06-20T20:34:37.761Z,100979.56
2018-06-20T20:37:06.124Z,100971.95
2018-06-20T20:39:34.500Z,100975.61
2018-06-20T20:42:02.952Z,100969.32
2018-06-20T20:44:33.621Z,100968.70
2018-06-20T20:47:02.948Z,100971.05
2018-06-20T20:49:32.407Z,100967.77
2018-06-20T20:52:00.785Z,100965.13
2018-06-20T20:54:29.143Z,100963.84
2018-06-20T20:56:57.542Z,100970.02
2018-06-20T20:59:25.907Z,100958.59
2018-06-20T21:01:54.708Z,100967.78
2018-06-20T21:04:23.054Z,100963.65
2018-06-20T21:06:51.563Z,100960.32
2018-06-20T21:09:20.090Z,100968.94
2018-06-20T21:11:49.129Z,100959.96
2018-06-20T21:14:17.514Z,100961.47
2018-06-20T21:16:45.947Z,100961.64
2018-06-20T21:19:14.338Z,100957.32
2018-06-20T21:21:42.682Z,100958.17
2018-06-20T21:24:11.034Z,100957.85
2018-06-20T21:26:40.195Z,100952.04
2018-06-20T21:29:08.603Z,100951.71
2018-06-20T21:31:37.051Z,100950.08
2018-06-20T21:34:05.411Z,100949.41
2018-06-20T21:36:33.879Z,100949.74
2018-06-20T21:39:02.265Z,100939.13
2018-06-20T21:41:31.624Z,100948.76
2018-06-20T21:44:00.894Z,100943.45
2018-06-20T21:46:30.270Z,100946.13
2018-06-20T21:48:58.630Z,100943.79
2018-06-20T21:51:27.023Z,100942.78
2018-06-20T21:53:55.369Z,100937.66
2018-06-20T21:56:23.727Z,100933.69
2018-06-20T21:58:52.098Z,100935.47
2018-06-20T22:01:20.459Z,100932.97
2018-06-20T22:03:48.871Z,100926.34
2018-06-20T22:06:17.237Z,100932.80
2018-06-20T22:08:45.596Z,100932.63
2018-06-20T22:11:14.053Z,100924.84
2018-06-20T22:13:42.422Z,100925.16
2018-06-20T22:16:11.686Z,100922.50
2018-06-20T22:18:40.104Z,100926.14
2018-06-20T22:21:09.368Z,100917.69
2018-06-20T22:23:38.789Z,100926.66
2018-06-20T22:26:08.154Z,100921.16
2018-06-20T22:28:36.516Z,100916.52
2018-06-20T22:31:04.877Z,100916.52
2018-06-20T22:33:33.258Z,100920.49
2018-06-20T22:36:01.604Z,100919.66
2018-06-20T22:38:29.993Z,100920.00
2018-06-20T22:40:59.142Z,100918.85
2018-06-20T22:43:27.491Z,100918.85
2018-06-20T22:45:55.844Z,100920.49
2018-06-20T22:48:24.212Z,100921.16
2018-06-20T22:50:52.611Z,100916.86
2018-06-20T22:53:20.984Z,100921.02
2018-06-20T22:55:49.331Z,100918.50
2018-06-20T22:58:17.692Z,100920.17
2018-06-20T23:00:46.047Z,100920.49
2018-06-20T23:03:14.415Z,100922.66
2018-06-20T23:05:42.769Z,100921.16
2018-06-20T23:08:11.167Z,100918.50
2018-06-20T23:10:39.533Z,100917.66
2018-06-20T23:13:08.006Z,100908.88
2018-06-20T23:15:36.349Z,100910.20
2018-06-20T23:18:04.997Z,100906.19
2018-06-20T23:20:34.443Z,100901.37
2018-06-20T23:23:03.135Z,100900.88
2018-06-20T23:25:31.541Z,100901.86
2018-06-20T23:28:00.799Z,100900.52
2018-06-20T23:30:29.156Z,100898.18
2018-06-20T23:32:57.522Z,100904.45
2018-06-20T23:35:25.889Z,100902.81
2018-06-20T23:37:55.260Z,100893.53
2018-06-20T23:40:24.421Z,100891.19
2018-06-20T23:42:52.823Z,100885.50
2018-06-20T23:45:22.065Z,100883.50
2018-06-20T23:47:50.433Z,100879.17
2018-06-20T23:50:18.787Z,100872.20
2018-06-20T23:52:47.125Z,100866.89
2018-06-20T23:55:15.476Z,100865.91
2018-06-20T23:57:43.846Z,100864.23
